Athens, Vermont
Current Conditions -  °F | °C
As of 9:54 AM on Thursday 30 Oct 2014 (Local Time) from KVSF Reporting Station
Overcast Overcast  
Wind Chill: 45°   Ceiling: 7500
Heat Index: 45°   Visibility: 10mi
Dew Point: 42°   Wind: 3mph
Humidity: 90%   Direction: 130°SE
Pressure: 29.94"   Gusts: NA
Location:  43.2811°N, 72.6352°W
Report Text: KVSF 301354Z AUTO 13003KT 10SM OVC075 07/06 A2994 RMK AO2 SLP144 T00720056
Loading
Personal Weather Stations






























Interactive Weather Map New forecast layout! Learn more

10-Day Weather Forecast

Advertisements
Track Severe Weather on mobile